Time,TemperatureF,DewpointF,PressureIn,WindDirection,WindDirectionDegrees,WindSpeedMPH,WindSpeedGustMPH,Humidity,HourlyPrecipIn,Conditions,Clouds,dailyrainin,SoftwareType,DateUTC
2013-11-11 00:01:00,54.1,31.5,30.25,North,0,10.7,13.6,42,0.00,,,0.00,meteobridge,2013-11-11 05:01:00,
2013-11-11 00:02:00,54.1,31.5,30.25,NW,315,9.8,12.1,42,0.00,,,0.00,meteobridge,2013-11-11 05:02:00,
2013-11-11 00:04:00,54.0,30.7,30.25,North,0,9.8,13.0,41,0.00,,,0.00,meteobridge,2013-11-11 05:04:00,
2013-11-11 00:09:00,53.8,31.8,30.25,North,0,13.6,13.6,43,0.00,,,0.00,meteobridge,2013-11-11 05:09:00,
2013-11-11 00:14:00,53.4,31.5,30.25,NW,315,10.7,13.0,43,0.00,,,0.00,meteobridge,2013-11-11 05:14:00,
2013-11-11 00:19:00,53.2,31.3,30.25,North,0,13.0,13.0,43,0.00,,,0.00,meteobridge,2013-11-11 05:19:00,
2013-11-11 00:24:00,53.1,31.6,30.25,North,0,9.2,10.7,44,0.00,,,0.00,meteobridge,2013-11-11 05:24:00,
2013-11-11 00:30:00,52.9,30.9,30.25,North,0,11.4,12.1,43,0.00,,,0.00,meteobridge,2013-11-11 05:30:00,
2013-11-11 00:35:00,52.7,31.5,30.26,North,0,8.3,10.7,44,0.00,,,0.00,meteobridge,2013-11-11 05:35:00,
2013-11-11 00:40:00,52.5,31.3,30.26,North,0,10.7,10.7,44,0.00,,,0.00,meteobridge,2013-11-11 05:40:00,
2013-11-11 00:45:00,52.3,30.6,30.26,North,0,9.8,9.8,43,0.00,,,0.00,meteobridge,2013-11-11 05:45:00,
2013-11-11 00:50:00,52.2,30.4,30.26,North,0,8.3,8.3,43,0.00,,,0.00,meteobridge,2013-11-11 05:50:00,
2013-11-11 00:55:00,52.2,30.4,30.26,NW,315,12.1,15.9,43,0.00,,,0.00,meteobridge,2013-11-11 05:55:00,
2013-11-11 01:01:00,52.2,29.8,30.27,North,0,13.6,14.5,42,0.00,,,0.00,meteobridge,2013-11-11 06:01:00,
2013-11-11 01:06:00,52.0,31.8,30.26,North,0,9.2,9.2,46,0.00,,,0.00,meteobridge,2013-11-11 06:06:00,
2013-11-11 01:11:00,51.8,31.1,30.27,North,0,10.7,12.1,45,0.00,,,0.00,meteobridge,2013-11-11 06:11:00,
2013-11-11 01:16:00,51.6,30.9,30.27,NNW,338,8.3,9.8,45,0.00,,,0.00,meteobridge,2013-11-11 06:16:00,
2013-11-11 01:21:00,51.4,30.7,30.27,North,0,11.4,12.1,45,0.00,,,0.00,meteobridge,2013-11-11 06:21:00,
2013-11-11 01:26:00,51.3,32.2,30.27,NW,315,6.0,7.6,48,0.00,,,0.00,meteobridge,2013-11-11 06:26:00,
2013-11-11 01:32:00,51.1,31.6,30.27,NW,315,8.3,10.7,47,0.00,,,0.00,meteobridge,2013-11-11 06:32:00,
2013-11-11 01:37:00,50.9,32.4,30.27,North,0,7.6,7.6,49,0.00,,,0.00,meteobridge,2013-11-11 06:37:00,
2013-11-11 01:42:00,50.5,30.0,30.27,NW,315,9.2,11.4,45,0.00,,,0.00,meteobridge,2013-11-11 06:42:00,
2013-11-11 01:47:00,50.4,30.9,30.27,NW,315,9.2,10.7,47,0.00,,,0.00,meteobridge,2013-11-11 06:47:00,
2013-11-11 01:52:00,50.2,31.3,30.27,NW,315,8.3,8.3,48,0.00,,,0.00,meteobridge,2013-11-11 06:52:00,
2013-11-11 01:57:00,50.2,30.7,30.27,North,0,8.3,9.8,47,0.00,,,0.00,meteobridge,2013-11-11 06:57:00,
2013-11-11 02:03:00,50.0,31.1,30.27,North,0,4.5,6.9,48,0.00,,,0.00,meteobridge,2013-11-11 07:03:00,
2013-11-11 02:08:00,49.3,30.4,30.27,NW,315,8.3,8.3,48,0.00,,,0.00,meteobridge,2013-11-11 07:08:00,
2013-11-11 02:13:00,49.3,30.4,30.27,NE,45,6.0,6.0,48,0.00,,,0.00,meteobridge,2013-11-11 07:13:00,
2013-11-11 02:18:00,48.9,29.7,30.27,North,0,3.8,3.8,47,0.00,,,0.00,meteobridge,2013-11-11 07:18:00,
2013-11-11 02:23:00,48.6,29.8,30.28,North,0,5.4,5.4,48,0.00,,,0.00,meteobridge,2013-11-11 07:23:00,
2013-11-11 02:28:00,48.6,30.7,30.28,North,0,5.4,6.9,50,0.00,,,0.00,meteobridge,2013-11-11 07:28:00,
2013-11-11 02:34:00,48.6,30.7,30.28,North,0,9.2,9.2,50,0.00,,,0.00,meteobridge,2013-11-11 07:34:00,
2013-11-11 02:39:00,48.6,32.7,30.28,NW,315,6.0,6.9,54,0.00,,,0.00,meteobridge,2013-11-11 07:39:00,
2013-11-11 02:44:00,48.2,31.8,30.28,North,0,4.5,4.5,53,0.00,,,0.00,meteobridge,2013-11-11 07:44:00,
2013-11-11 02:49:00,47.8,30.6,30.28,North,0,6.0,7.6,51,0.00,,,0.00,meteobridge,2013-11-11 07:49:00,
2013-11-11 02:54:00,47.8,31.5,30.29,North,0,3.1,5.4,53,0.00,,,0.00,meteobridge,2013-11-11 07:54:00,
2013-11-11 02:59:00,47.5,31.3,30.29,North,0,6.9,8.3,53,0.00,,,0.00,meteobridge,2013-11-11 07:59:00,
2013-11-11 03:05:00,47.7,32.4,30.29,NE,45,5.4,6.0,55,0.00,,,0.00,meteobridge,2013-11-11 08:05:00,
2013-11-11 03:10:00,47.1,29.8,30.29,NNE,23,6.0,7.6,51,0.00,,,0.00,meteobridge,2013-11-11 08:10:00,
2013-11-11 03:15:00,47.5,33.1,30.28,North,0,7.6,9.8,57,0.00,,,0.00,meteobridge,2013-11-11 08:15:00,
2013-11-11 03:20:00,47.3,32.4,30.29,East,90,5.4,5.4,56,0.00,,,0.00,meteobridge,2013-11-11 08:20:00,
2013-11-11 03:25:00,46.8,31.5,30.29,NNE,23,4.5,8.3,55,0.00,,,0.00,meteobridge,2013-11-11 08:25:00,
2013-11-11 03:30:00,46.6,31.3,30.28,North,0,4.5,5.4,55,0.00,,,0.00,meteobridge,2013-11-11 08:30:00,
2013-11-11 03:36:00,46.2,30.0,30.29,North,0,6.9,6.9,53,0.00,,,0.00,meteobridge,2013-11-11 08:36:00,
2013-11-11 03:41:00,46.2,30.9,30.29,East,90,3.1,5.4,55,0.00,,,0.00,meteobridge,2013-11-11 08:41:00,
2013-11-11 03:46:00,45.7,29.5,30.29,NE,45,3.1,3.8,53,0.00,,,0.00,meteobridge,2013-11-11 08:46:00,
2013-11-11 03:51:00,45.3,29.7,30.29,NE,45,1.6,3.8,54,0.00,,,0.00,meteobridge,2013-11-11 08:51:00,
2013-11-11 03:56:00,45.3,30.0,30.29,NW,315,5.4,6.0,55,0.00,,,0.00,meteobridge,2013-11-11 08:56:00,
2013-11-11 04:02:00,45.3,30.6,30.29,ENE,68,4.5,5.4,56,0.00,,,0.00,meteobridge,2013-11-11 09:02:00,
2013-11-11 04:07:00,45.1,30.4,30.29,NE,45,3.1,3.1,56,0.00,,,0.00,meteobridge,2013-11-11 09:07:00,
2013-11-11 04:12:00,44.8,30.0,30.29,North,0,5.4,5.4,56,0.00,,,0.00,meteobridge,2013-11-11 09:12:00,
2013-11-11 04:17:00,44.6,30.4,30.30,East,90,2.2,4.5,57,0.00,,,0.00,meteobridge,2013-11-11 09:17:00,
2013-11-11 04:22:00,44.1,30.7,30.30,SE,135,1.6,2.2,59,0.00,,,0.00,meteobridge,2013-11-11 09:22:00,
2013-11-11 04:27:00,43.7,30.7,30.31,North,0,2.2,2.2,60,0.00,,,0.00,meteobridge,2013-11-11 09:27:00,
2013-11-11 04:32:00,43.2,31.1,30.30,East,90,3.1,3.8,62,0.00,,,0.00,meteobridge,2013-11-11 09:32:00,
2013-11-11 04:38:00,42.8,30.7,30.31,East,90,3.1,3.1,62,0.00,,,0.00,meteobridge,2013-11-11 09:38:00,
2013-11-11 04:43:00,42.4,31.5,30.31,SE,135,1.6,2.2,65,0.00,,,0.00,meteobridge,2013-11-11 09:43:00,
2013-11-11 04:48:00,42.1,31.1,30.31,ESE,113,3.1,3.1,65,0.00,,,0.00,meteobridge,2013-11-11 09:48:00,
2013-11-11 04:53:00,41.7,30.7,30.31,SE,135,2.2,2.2,65,0.00,,,0.00,meteobridge,2013-11-11 09:53:00,
2013-11-11 04:58:00,41.5,31.5,30.31,SE,135,4.5,4.5,67,0.00,,,0.00,meteobridge,2013-11-11 09:58:00,
2013-11-11 05:04:00,41.4,32.0,30.31,East,90,3.1,3.1,69,0.00,,,0.00,meteobridge,2013-11-11 10:04:00,
2013-11-11 05:09:00,41.2,32.5,30.31,SE,135,1.6,3.1,71,0.00,,,0.00,meteobridge,2013-11-11 10:09:00,
2013-11-11 05:14:00,41.0,32.4,30.31,East,90,1.6,2.2,71,0.00,,,0.00,meteobridge,2013-11-11 10:14:00,
2013-11-11 05:19:00,41.0,33.1,30.31,East,90,2.2,2.2,73,0.00,,,0.00,meteobridge,2013-11-11 10:19:00,
2013-11-11 05:24:00,41.0,33.1,30.32,East,90,2.2,2.2,73,0.00,,,0.00,meteobridge,2013-11-11 10:24:00,
2013-11-11 05:29:00,41.2,33.8,30.31,East,90,2.2,3.1,75,0.00,,,0.00,meteobridge,2013-11-11 10:29:00,
2013-11-11 05:35:00,41.0,34.7,30.31,East,90,1.6,2.2,78,0.00,,,0.00,meteobridge,2013-11-11 10:35:00,
2013-11-11 05:40:00,41.0,34.7,30.32,East,90,0.7,1.6,78,0.00,,,0.00,meteobridge,2013-11-11 10:40:00,
2013-11-11 05:45:00,40.6,34.7,30.32,East,90,3.1,3.8,79,0.00,,,0.00,meteobridge,2013-11-11 10:45:00,
2013-11-11 05:50:00,40.1,34.5,30.31,SE,135,0.7,1.6,80,0.00,,,0.00,meteobridge,2013-11-11 10:50:00,
2013-11-11 05:55:00,39.6,33.6,30.32,SE,135,3.8,4.5,79,0.00,,,0.00,meteobridge,2013-11-11 10:55:00,
2013-11-11 06:00:00,39.0,33.6,30.32,SE,135,3.1,3.1,81,0.00,,,0.00,meteobridge,2013-11-11 11:00:00,
2013-11-11 06:06:00,38.7,33.6,30.32,East,90,3.1,3.8,82,0.00,,,0.00,meteobridge,2013-11-11 11:06:00,
2013-11-11 06:11:00,38.3,33.6,30.32,SE,135,3.8,3.8,83,0.00,,,0.00,meteobridge,2013-11-11 11:11:00,
2013-11-11 06:16:00,38.1,34.0,30.32,SE,135,3.1,3.8,85,0.00,,,0.00,meteobridge,2013-11-11 11:16:00,
2013-11-11 06:21:00,38.1,34.0,30.32,East,90,3.1,3.1,85,0.00,,,0.00,meteobridge,2013-11-11 11:21:00,
2013-11-11 06:26:00,37.8,33.6,30.33,SE,135,3.1,3.1,85,0.00,,,0.00,meteobridge,2013-11-11 11:26:00,
2013-11-11 06:31:00,37.6,33.4,30.33,SE,135,3.8,3.8,85,0.00,,,0.00,meteobridge,2013-11-11 11:31:00,
2013-11-11 06:37:00,37.2,32.0,30.33,SE,135,2.2,2.2,81,0.00,,,0.00,meteobridge,2013-11-11 11:37:00,
2013-11-11 06:42:00,37.0,31.8,30.33,East,90,3.1,3.1,81,0.00,,,0.00,meteobridge,2013-11-11 11:42:00,
2013-11-11 06:47:00,36.9,31.8,30.33,East,90,3.1,3.1,82,0.00,,,0.00,meteobridge,2013-11-11 11:47:00,
2013-11-11 06:52:00,36.9,31.6,30.34,East,90,3.1,3.1,81,0.00,,,0.00,meteobridge,2013-11-11 11:52:00,
2013-11-11 06:57:00,36.7,31.6,30.34,East,90,3.1,3.1,82,0.00,,,0.00,meteobridge,2013-11-11 11:57:00,
2013-11-11 07:02:00,36.7,31.6,30.34,SE,135,2.2,3.1,82,0.00,,,0.00,meteobridge,2013-11-11 12:02:00,
2013-11-11 07:08:00,36.7,31.6,30.34,SE,135,3.1,3.1,82,0.00,,,0.00,meteobridge,2013-11-11 12:08:00,
2013-11-11 07:13:00,36.5,31.5,30.34,SE,135,3.1,3.8,82,0.00,,,0.00,meteobridge,2013-11-11 12:13:00,
2013-11-11 07:18:00,38.5,34.9,30.35,East,90,3.1,3.1,87,0.00,,,0.00,meteobridge,2013-11-11 12:18:00,
2013-11-11 07:23:00,40.3,36.1,30.35,SE,135,2.2,2.2,85,0.00,,,0.00,meteobridge,2013-11-11 12:23:00,
2013-11-11 07:28:00,41.4,36.0,30.35,ESE,113,3.1,3.1,81,0.00,,,0.00,meteobridge,2013-11-11 12:28:00,
2013-11-11 07:33:00,42.1,35.4,30.36,SE,135,4.5,4.5,77,0.00,,,0.00,meteobridge,2013-11-11 12:33:00,
2013-11-11 07:39:00,42.3,34.9,30.35,SE,135,1.6,2.2,75,0.00,,,0.00,meteobridge,2013-11-11 12:39:00,
2013-11-11 07:44:00,44.4,36.7,30.35,SE,135,2.2,2.2,74,0.00,,,0.00,meteobridge,2013-11-11 12:44:00,
2013-11-11 07:49:00,44.6,35.8,30.35,SE,135,2.2,3.1,71,0.00,,,0.00,meteobridge,2013-11-11 12:49:00,
2013-11-11 07:54:00,45.3,36.5,30.36,SE,135,2.2,3.1,71,0.00,,,0.00,meteobridge,2013-11-11 12:54:00,
2013-11-11 07:59:00,45.9,36.3,30.36,SE,135,2.2,3.1,69,0.00,,,0.00,meteobridge,2013-11-11 12:59:00,
2013-11-11 08:04:00,46.0,36.5,30.35,SE,135,1.6,2.2,69,0.00,,,0.00,meteobridge,2013-11-11 13:04:00,
2013-11-11 08:10:00,47.7,37.6,30.36,East,90,2.2,2.2,68,0.00,,,0.00,meteobridge,2013-11-11 13:10:00,
2013-11-11 08:15:00,48.4,37.6,30.37,East,90,1.6,1.6,66,0.00,,,0.00,meteobridge,2013-11-11 13:15:00,
2013-11-11 08:20:00,50.5,39.2,30.37,East,90,1.6,1.6,65,0.00,,,0.00,meteobridge,2013-11-11 13:20:00,
2013-11-11 08:25:00,52.7,40.1,30.37,SE,135,0.7,0.7,62,0.00,,,0.00,meteobridge,2013-11-11 13:25:00,
2013-11-11 08:30:00,55.4,40.8,30.37,SW,225,0.7,0.7,58,0.00,,,0.00,meteobridge,2013-11-11 13:30:00,
2013-11-11 08:35:00,57.9,41.4,30.37,West,270,0.7,0.7,54,0.00,,,0.00,meteobridge,2013-11-11 13:35:00,
2013-11-11 08:41:00,59.7,38.3,30.37,NW,315,1.6,1.6,45,0.00,,,0.00,meteobridge,2013-11-11 13:41:00,
2013-11-11 08:46:00,60.6,37.9,30.36,North,0,1.6,1.6,43,0.00,,,0.00,meteobridge,2013-11-11 13:46:00,
2013-11-11 08:51:00,60.1,36.9,30.37,North,0,2.2,2.2,42,0.00,,,0.00,meteobridge,2013-11-11 13:51:00,
2013-11-11 08:56:00,61.7,38.3,30.37,West,270,0.7,0.7,42,0.00,,,0.00,meteobridge,2013-11-11 13:56:00,
2013-11-11 09:01:00,61.3,36.1,30.36,West,270,1.6,3.1,39,0.00,,,0.00,meteobridge,2013-11-11 14:01:00,
2013-11-11 09:06:00,59.4,35.6,30.37,North,0,3.1,3.1,41,0.00,,,0.00,meteobridge,2013-11-11 14:06:00,
2013-11-11 09:12:00,60.1,33.1,30.36,West,270,0.7,2.2,36,0.00,,,0.00,meteobridge,2013-11-11 14:12:00,
2013-11-11 09:17:00,62.6,33.8,30.37,North,0,3.1,3.1,34,0.00,,,0.00,meteobridge,2013-11-11 14:17:00,
2013-11-11 09:22:00,61.0,31.6,30.37,NW,315,1.6,2.2,33,0.00,,,0.00,meteobridge,2013-11-11 14:22:00,
2013-11-11 09:27:00,62.6,32.4,30.37,NW,315,1.6,2.2,32,0.00,,,0.00,meteobridge,2013-11-11 14:27:00,
2013-11-11 09:32:00,63.7,30.7,30.37,North,0,3.1,3.8,29,0.00,,,0.00,meteobridge,2013-11-11 14:32:00,
2013-11-11 09:37:00,61.7,29.1,30.37,NW,315,3.1,3.1,29,0.00,,,0.00,meteobridge,2013-11-11 14:37:00,
2013-11-11 09:42:00,61.2,29.5,30.36,NW,315,2.2,3.1,30,0.00,,,0.00,meteobridge,2013-11-11 14:42:00,
2013-11-11 09:48:00,61.2,27.9,30.36,North,0,2.2,3.1,28,0.00,,,0.00,meteobridge,2013-11-11 14:48:00,
2013-11-11 09:53:00,61.9,30.0,30.36,NW,315,3.8,3.8,30,0.00,,,0.00,meteobridge,2013-11-11 14:53:00,
2013-11-11 09:58:00,62.1,30.2,30.36,NW,315,2.2,2.2,30,0.00,,,0.00,meteobridge,2013-11-11 14:58:00,
2013-11-11 10:03:00,62.1,31.1,30.36,West,270,1.6,2.2,31,0.00,,,0.00,meteobridge,2013-11-11 15:03:00,
2013-11-11 10:08:00,61.5,29.8,30.36,NW,315,3.1,3.8,30,0.00,,,0.00,meteobridge,2013-11-11 15:08:00,
2013-11-11 10:13:00,60.6,30.6,30.36,North,0,5.4,5.4,32,0.00,,,0.00,meteobridge,2013-11-11 15:13:00,
2013-11-11 10:19:00,59.5,27.3,30.35,SW,225,3.8,6.9,29,0.00,,,0.00,meteobridge,2013-11-11 15:19:00,
2013-11-11 10:24:00,58.6,28.0,30.35,North,0,9.2,9.2,31,0.00,,,0.00,meteobridge,2013-11-11 15:24:00,
2013-11-11 10:29:00,56.5,29.1,30.35,East,90,4.5,9.8,35,0.00,,,0.00,meteobridge,2013-11-11 15:29:00,
2013-11-11 10:34:00,57.6,27.9,30.35,North,0,6.0,6.9,32,0.00,,,0.00,meteobridge,2013-11-11 15:34:00,
2013-11-11 10:39:00,56.8,28.0,30.35,North,0,3.1,6.9,33,0.00,,,0.00,meteobridge,2013-11-11 15:39:00,
2013-11-11 10:44:00,57.0,28.9,30.35,NW,315,8.3,8.3,34,0.00,,,0.00,meteobridge,2013-11-11 15:44:00,
2013-11-11 10:50:00,57.0,29.7,30.34,North,0,7.6,7.6,35,0.00,,,0.00,meteobridge,2013-11-11 15:50:00,
2013-11-11 10:55:00,57.4,28.6,30.34,North,0,6.9,6.9,33,0.00,,,0.00,meteobridge,2013-11-11 15:55:00,
2013-11-11 11:01:00,57.7,28.8,30.34,North,0,5.4,6.9,33,0.00,,,0.00,meteobridge,2013-11-11 16:01:00,
2013-11-11 11:06:00,58.3,30.7,30.34,NW,315,4.5,5.4,35,0.00,,,0.00,meteobridge,2013-11-11 16:06:00,
2013-11-11 11:11:00,58.1,29.8,30.33,North,0,6.9,8.3,34,0.00,,,0.00,meteobridge,2013-11-11 16:11:00,
2013-11-11 11:17:00,58.5,28.8,30.33,North,0,5.4,6.9,32,0.00,,,0.00,meteobridge,2013-11-11 16:17:00,
2013-11-11 11:22:00,59.5,30.4,30.32,NNW,338,6.0,6.0,33,0.00,,,0.00,meteobridge,2013-11-11 16:22:00,
2013-11-11 11:27:00,61.5,32.2,30.32,NW,315,4.5,4.5,33,0.00,,,0.00,meteobridge,2013-11-11 16:27:00,
2013-11-11 11:33:00,60.4,33.4,30.32,North,0,6.0,7.6,36,0.00,,,0.00,meteobridge,2013-11-11 16:33:00,
2013-11-11 11:38:00,59.2,32.2,30.32,SW,225,9.2,9.2,36,0.00,,,0.00,meteobridge,2013-11-11 16:38:00,
2013-11-11 11:43:00,56.8,33.4,30.31,WNW,293,6.0,7.6,41,0.00,,,0.00,meteobridge,2013-11-11 16:43:00,
2013-11-11 11:48:00,56.3,32.4,30.31,West,270,6.9,7.6,40,0.00,,,0.00,meteobridge,2013-11-11 16:48:00,
2013-11-11 11:53:00,56.3,31.6,30.31,NW,315,7.6,7.6,39,0.00,,,0.00,meteobridge,2013-11-11 16:53:00,
2013-11-11 11:58:00,56.1,32.7,30.30,West,270,9.8,9.8,41,0.00,,,0.00,meteobridge,2013-11-11 16:58:00,
2013-11-11 12:04:00,55.6,31.6,30.31,West,270,6.9,7.6,40,0.00,,,0.00,meteobridge,2013-11-11 17:04:00,
2013-11-11 12:09:00,56.1,32.2,30.30,West,270,7.6,7.6,40,0.00,,,0.00,meteobridge,2013-11-11 17:09:00,
2013-11-11 12:14:00,56.7,32.5,30.30,West,270,7.6,8.3,40,0.00,,,0.00,meteobridge,2013-11-11 17:14:00,
2013-11-11 12:19:00,57.2,32.5,30.29,West,270,6.9,6.9,39,0.00,,,0.00,meteobridge,2013-11-11 17:19:00,
2013-11-11 12:24:00,57.0,32.4,30.29,West,270,6.9,6.9,39,0.00,,,0.00,meteobridge,2013-11-11 17:24:00,
2013-11-11 12:29:00,56.8,32.2,30.29,WNW,293,4.5,7.6,39,0.00,,,0.00,meteobridge,2013-11-11 17:29:00,
2013-11-11 12:35:00,57.7,32.4,30.29,West,270,6.9,8.3,38,0.00,,,0.00,meteobridge,2013-11-11 17:35:00,
2013-11-11 12:40:00,57.4,32.0,30.29,West,270,8.3,9.2,38,0.00,,,0.00,meteobridge,2013-11-11 17:40:00,
2013-11-11 12:45:00,57.0,31.6,30.29,NW,315,11.4,11.4,38,0.00,,,0.00,meteobridge,2013-11-11 17:45:00,
2013-11-11 12:50:00,59.2,32.2,30.28,North,0,5.4,6.9,36,0.00,,,0.00,meteobridge,2013-11-11 17:50:00,
2013-11-11 12:55:00,60.6,31.3,30.27,NW,315,4.5,4.5,33,0.00,,,0.00,meteobridge,2013-11-11 17:55:00,
2013-11-11 13:00:00,61.7,27.3,30.27,NW,315,3.8,6.0,27,0.00,,,0.00,meteobridge,2013-11-11 18:00:00,
2013-11-11 13:06:00,61.2,27.0,30.27,West,270,5.4,6.0,27,0.00,,,0.00,meteobridge,2013-11-11 18:06:00,
2013-11-11 13:11:00,60.3,31.1,30.27,WNW,293,7.6,7.6,33,0.00,,,0.00,meteobridge,2013-11-11 18:11:00,
2013-11-11 13:16:00,59.9,29.1,30.26,West,270,6.9,6.9,31,0.00,,,0.00,meteobridge,2013-11-11 18:16:00,
2013-11-11 13:21:00,59.7,30.6,30.26,West,270,6.9,6.9,33,0.00,,,0.00,meteobridge,2013-11-11 18:21:00,
2013-11-11 13:26:00,59.9,30.7,30.26,SW,225,4.5,6.9,33,0.00,,,0.00,meteobridge,2013-11-11 18:26:00,
2013-11-11 13:31:00,60.1,26.1,30.25,West,270,5.4,6.0,27,0.00,,,0.00,meteobridge,2013-11-11 18:31:00,
2013-11-11 13:37:00,61.0,26.8,30.25,NW,315,3.1,3.8,27,0.00,,,0.00,meteobridge,2013-11-11 18:37:00,
2013-11-11 13:42:00,62.4,28.0,30.26,West,270,3.8,3.8,27,0.00,,,0.00,meteobridge,2013-11-11 18:42:00,
2013-11-11 13:47:00,63.3,27.0,30.25,SW,225,3.1,3.1,25,0.00,,,0.00,meteobridge,2013-11-11 18:47:00,
2013-11-11 13:52:00,63.5,26.1,30.25,West,270,1.6,2.2,24,0.00,,,0.00,meteobridge,2013-11-11 18:52:00,
2013-11-11 13:57:00,64.6,28.9,30.24,West,270,2.2,3.1,26,0.00,,,0.00,meteobridge,2013-11-11 18:57:00,
2013-11-11 14:03:00,66.4,29.5,30.24,West,270,1.6,1.6,25,0.00,,,0.00,meteobridge,2013-11-11 19:03:00,
2013-11-11 14:08:00,67.3,29.3,30.24,West,270,3.1,3.8,24,0.00,,,0.00,meteobridge,2013-11-11 19:08:00,
2013-11-11 14:13:00,64.2,26.6,30.24,SW,225,3.1,3.1,24,0.00,,,0.00,meteobridge,2013-11-11 19:13:00,
2013-11-11 14:18:00,63.3,27.0,30.24,West,270,4.5,4.5,25,0.00,,,0.00,meteobridge,2013-11-11 19:18:00,
2013-11-11 14:23:00,62.6,30.7,30.23,SW,225,4.5,4.5,30,0.00,,,0.00,meteobridge,2013-11-11 19:23:00,
2013-11-11 14:28:00,62.2,27.9,30.23,West,270,4.5,4.5,27,0.00,,,0.00,meteobridge,2013-11-11 19:28:00,
2013-11-11 14:34:00,62.1,27.7,30.23,West,270,3.1,3.8,27,0.00,,,0.00,meteobridge,2013-11-11 19:34:00,
2013-11-11 14:39:00,62.8,28.2,30.23,West,270,2.2,3.1,27,0.00,,,0.00,meteobridge,2013-11-11 19:39:00,
2013-11-11 14:44:00,63.0,27.5,30.22,West,270,3.1,3.1,26,0.00,,,0.00,meteobridge,2013-11-11 19:44:00,
2013-11-11 14:49:00,63.3,27.9,30.22,West,270,3.8,3.8,26,0.00,,,0.00,meteobridge,2013-11-11 19:49:00,
2013-11-11 14:54:00,63.3,27.0,30.22,SW,225,3.1,3.1,25,0.00,,,0.00,meteobridge,2013-11-11 19:54:00,
2013-11-11 14:59:00,64.2,27.7,30.22,WSW,248,3.8,3.8,25,0.00,,,0.00,meteobridge,2013-11-11 19:59:00,
2013-11-11 15:05:00,63.5,28.0,30.22,West,270,3.8,3.8,26,0.00,,,0.00,meteobridge,2013-11-11 20:05:00,
2013-11-11 15:10:00,62.8,28.2,30.22,West,270,3.1,3.1,27,0.00,,,0.00,meteobridge,2013-11-11 20:10:00,
2013-11-11 15:16:00,62.8,27.3,30.21,West,270,2.2,2.2,26,0.00,,,0.00,meteobridge,2013-11-11 20:16:00,
2013-11-11 15:21:00,63.7,27.1,30.21,North,0,0.7,2.2,25,0.00,,,0.00,meteobridge,2013-11-11 20:21:00,
2013-11-11 15:26:00,65.7,28.9,30.21,NW,315,3.1,3.1,25,0.00,,,0.00,meteobridge,2013-11-11 20:26:00,
2013-11-11 15:31:00,66.6,29.7,30.21,West,270,3.1,3.1,25,0.00,,,0.00,meteobridge,2013-11-11 20:31:00,
2013-11-11 15:36:00,65.8,28.9,30.20,SE,135,1.6,2.2,25,0.00,,,0.00,meteobridge,2013-11-11 20:36:00,
2013-11-11 15:41:00,64.2,24.6,30.20,South,180,5.4,5.4,22,0.00,,,0.00,meteobridge,2013-11-11 20:41:00,
2013-11-11 15:47:00,63.5,26.1,30.19,East,90,4.5,4.5,24,0.00,,,0.00,meteobridge,2013-11-11 20:47:00,
2013-11-11 15:52:00,63.1,24.8,30.20,SE,135,3.1,3.1,23,0.00,,,0.00,meteobridge,2013-11-11 20:52:00,
2013-11-11 15:57:00,63.7,26.2,30.19,SE,135,3.1,3.8,24,0.00,,,0.00,meteobridge,2013-11-11 20:57:00,
2013-11-11 16:02:00,63.0,25.5,30.19,SE,135,3.1,3.8,24,0.00,,,0.00,meteobridge,2013-11-11 21:02:00,
2013-11-11 16:07:00,64.4,28.8,30.20,South,180,3.1,3.1,26,0.00,,,0.00,meteobridge,2013-11-11 21:07:00,
2013-11-11 16:12:00,65.5,29.7,30.19,South,180,3.8,3.8,26,0.00,,,0.00,meteobridge,2013-11-11 21:12:00,
2013-11-11 16:18:00,65.3,29.5,30.19,SE,135,3.8,3.8,26,0.00,,,0.00,meteobridge,2013-11-11 21:18:00,
2013-11-11 16:23:00,64.6,28.9,30.19,South,180,1.6,2.2,26,0.00,,,0.00,meteobridge,2013-11-11 21:23:00,
2013-11-11 16:28:00,66.2,31.3,30.19,SE,135,0.7,0.7,27,0.00,,,0.00,meteobridge,2013-11-11 21:28:00,
2013-11-11 16:33:00,66.2,31.3,30.19,SE,135,1.6,3.1,27,0.00,,,0.00,meteobridge,2013-11-11 21:33:00,
2013-11-11 16:39:00,64.2,30.4,30.20,South,180,1.6,2.2,28,0.00,,,0.00,meteobridge,2013-11-11 21:39:00,
2013-11-11 16:44:00,62.4,32.2,30.20,SE,135,2.2,2.2,32,0.00,,,0.00,meteobridge,2013-11-11 21:44:00,
2013-11-11 16:49:00,60.4,32.7,30.20,SE,135,1.6,1.6,35,0.00,,,0.00,meteobridge,2013-11-11 21:49:00,
2013-11-11 16:54:00,58.1,33.3,30.19,SE,135,1.6,1.6,39,0.00,,,0.00,meteobridge,2013-11-11 21:54:00,
2013-11-11 16:59:00,55.8,35.2,30.19,SE,135,1.6,1.6,46,0.00,,,0.00,meteobridge,2013-11-11 21:59:00,
2013-11-11 17:04:00,54.5,34.7,30.19,SE,135,1.6,2.2,47,0.00,,,0.00,meteobridge,2013-11-11 22:04:00,
2013-11-11 17:10:00,53.6,35.4,30.20,SE,135,2.2,2.2,50,0.00,,,0.00,meteobridge,2013-11-11 22:10:00,
2013-11-11 17:15:00,52.7,36.0,30.20,ESE,113,3.1,3.1,53,0.00,,,0.00,meteobridge,2013-11-11 22:15:00,
2013-11-11 17:20:00,52.2,35.1,30.20,SE,135,3.1,3.1,52,0.00,,,0.00,meteobridge,2013-11-11 22:20:00,
2013-11-11 17:25:00,51.8,35.2,30.20,East,90,3.8,3.8,53,0.00,,,0.00,meteobridge,2013-11-11 22:25:00,
2013-11-11 17:30:00,51.3,35.6,30.20,East,90,3.8,3.8,55,0.00,,,0.00,meteobridge,2013-11-11 22:30:00,
2013-11-11 17:35:00,50.9,35.2,30.20,East,90,3.8,3.8,55,0.00,,,0.00,meteobridge,2013-11-11 22:35:00,
2013-11-11 17:41:00,50.4,35.2,30.20,East,90,3.8,3.8,56,0.00,,,0.00,meteobridge,2013-11-11 22:41:00,
2013-11-11 17:46:00,50.0,34.9,30.20,East,90,3.8,3.8,56,0.00,,,0.00,meteobridge,2013-11-11 22:46:00,
2013-11-11 17:51:00,49.6,35.1,30.20,East,90,3.1,3.1,57,0.00,,,0.00,meteobridge,2013-11-11 22:51:00,
2013-11-11 17:56:00,49.3,35.1,30.20,SE,135,3.8,3.8,58,0.00,,,0.00,meteobridge,2013-11-11 22:56:00,
2013-11-11 18:01:00,48.9,35.2,30.20,East,90,3.8,3.8,59,0.00,,,0.00,meteobridge,2013-11-11 23:01:00,
2013-11-11 18:06:00,48.7,36.0,30.21,East,90,3.8,3.8,61,0.00,,,0.00,meteobridge,2013-11-11 23:06:00,
2013-11-11 18:12:00,48.6,35.8,30.21,SE,135,2.2,2.2,61,0.00,,,0.00,meteobridge,2013-11-11 23:12:00,
2013-11-11 18:17:00,48.6,35.8,30.21,East,90,3.8,3.8,61,0.00,,,0.00,meteobridge,2013-11-11 23:17:00,
2013-11-11 18:22:00,48.2,35.4,30.22,SE,135,3.8,3.8,61,0.00,,,0.00,meteobridge,2013-11-11 23:22:00,
2013-11-11 18:27:00,48.0,35.6,30.21,SE,135,4.5,4.5,62,0.00,,,0.00,meteobridge,2013-11-11 23:27:00,
2013-11-11 18:32:00,47.5,34.7,30.21,SE,135,3.8,4.5,61,0.00,,,0.00,meteobridge,2013-11-11 23:32:00,
2013-11-11 18:37:00,47.3,35.8,30.21,East,90,3.8,3.8,64,0.00,,,0.00,meteobridge,2013-11-11 23:37:00,
2013-11-11 18:43:00,46.9,35.4,30.20,East,90,3.1,3.1,64,0.00,,,0.00,meteobridge,2013-11-11 23:43:00,
2013-11-11 18:48:00,46.8,35.6,30.20,East,90,3.8,3.8,65,0.00,,,0.00,meteobridge,2013-11-11 23:48:00,
2013-11-11 18:53:00,46.6,35.8,30.20,SE,135,3.8,3.8,66,0.00,,,0.00,meteobridge,2013-11-11 23:53:00,
2013-11-11 18:58:00,46.2,36.0,30.20,SE,135,3.8,3.8,67,0.00,,,0.00,meteobridge,2013-11-11 23:58:00,
2013-11-11 19:03:00,46.0,36.5,30.19,ESE,113,3.1,3.8,69,0.00,,,0.00,meteobridge,2013-11-12 00:03:00,
2013-11-11 19:08:00,45.9,36.7,30.19,SE,135,3.1,3.1,70,0.00,,,0.00,meteobridge,2013-11-12 00:08:00,
2013-11-11 19:14:00,45.7,36.9,30.19,East,90,1.6,2.2,71,0.00,,,0.00,meteobridge,2013-11-12 00:14:00,
2013-11-11 19:19:00,45.5,36.3,30.19,SE,135,2.2,2.2,70,0.00,,,0.00,meteobridge,2013-11-12 00:19:00,
2013-11-11 19:24:00,45.3,36.5,30.19,SE,135,3.1,3.1,71,0.00,,,0.00,meteobridge,2013-11-12 00:24:00,
2013-11-11 19:29:00,45.3,36.5,30.19,SE,135,3.1,3.1,71,0.00,,,0.00,meteobridge,2013-11-12 00:29:00,
2013-11-11 19:34:00,45.3,36.9,30.19,ESE,113,3.1,3.1,72,0.00,,,0.00,meteobridge,2013-11-12 00:34:00,
2013-11-11 19:39:00,45.1,36.7,30.19,East,90,3.8,3.8,72,0.00,,,0.00,meteobridge,2013-11-12 00:39:00,
2013-11-11 19:45:00,45.0,36.9,30.19,East,90,3.8,3.8,73,0.00,,,0.00,meteobridge,2013-11-12 00:45:00,
2013-11-11 19:50:00,44.8,36.7,30.19,SE,135,3.1,3.8,73,0.00,,,0.00,meteobridge,2013-11-12 00:50:00,
2013-11-11 19:55:00,44.4,36.7,30.19,ESE,113,3.8,3.8,74,0.00,,,0.00,meteobridge,2013-11-12 00:55:00,
2013-11-11 20:00:00,44.4,36.7,30.19,East,90,3.1,3.8,74,0.00,,,0.00,meteobridge,2013-11-12 01:00:00,
2013-11-11 20:05:00,44.4,36.7,30.19,SE,135,3.1,3.1,74,0.00,,,0.00,meteobridge,2013-11-12 01:05:00,
2013-11-11 20:10:00,44.4,37.0,30.19,East,90,3.8,3.8,75,0.00,,,0.00,meteobridge,2013-11-12 01:10:00,
2013-11-11 20:16:00,44.2,36.9,30.19,East,90,3.8,3.8,75,0.00,,,0.00,meteobridge,2013-11-12 01:16:00,
2013-11-11 20:21:00,44.1,36.7,30.19,SE,135,3.8,4.5,75,0.00,,,0.00,meteobridge,2013-11-12 01:21:00,
2013-11-11 20:26:00,43.9,36.5,30.19,ESE,113,3.1,3.1,75,0.00,,,0.00,meteobridge,2013-11-12 01:26:00,
2013-11-11 20:31:00,43.9,36.9,30.19,SE,135,3.8,3.8,76,0.00,,,0.00,meteobridge,2013-11-12 01:31:00,
2013-11-11 20:36:00,43.5,36.9,30.19,East,90,3.1,3.1,77,0.00,,,0.00,meteobridge,2013-11-12 01:36:00,
2013-11-11 20:41:00,43.5,37.0,30.19,SE,135,3.1,3.1,78,0.00,,,0.00,meteobridge,2013-11-12 01:41:00,
2013-11-11 20:47:00,43.3,37.9,30.19,SE,135,3.1,3.1,81,0.00,,,0.00,meteobridge,2013-11-12 01:47:00,
2013-11-11 20:52:00,43.2,38.1,30.19,East,90,3.1,3.1,82,0.00,,,0.00,meteobridge,2013-11-12 01:52:00,
2013-11-11 20:57:00,43.0,37.9,30.19,SE,135,3.1,3.1,82,0.00,,,0.00,meteobridge,2013-11-12 01:57:00,
2013-11-11 21:02:00,43.0,38.1,30.19,SE,135,2.2,3.1,83,0.00,,,0.00,meteobridge,2013-11-12 02:02:00,
2013-11-11 21:07:00,42.8,37.9,30.19,SE,135,3.1,3.1,83,0.00,,,0.00,meteobridge,2013-11-12 02:07:00,
2013-11-11 21:12:00,42.6,38.1,30.19,ESE,113,3.1,3.1,84,0.00,,,0.00,meteobridge,2013-11-12 02:12:00,
2013-11-11 21:18:00,42.6,38.1,30.19,South,180,3.1,3.1,84,0.00,,,0.00,meteobridge,2013-11-12 02:18:00,
2013-11-11 21:23:00,42.4,38.3,30.19,SE,135,3.1,3.8,85,0.00,,,0.00,meteobridge,2013-11-12 02:23:00,
2013-11-11 21:28:00,42.3,37.8,30.19,East,90,3.1,3.8,84,0.00,,,0.00,meteobridge,2013-11-12 02:28:00,
2013-11-11 21:33:00,42.3,37.8,30.19,SE,135,3.1,3.1,84,0.00,,,0.00,meteobridge,2013-11-12 02:33:00,
2013-11-11 21:38:00,42.3,37.8,30.19,East,90,3.1,3.1,84,0.00,,,0.00,meteobridge,2013-11-12 02:38:00,
2013-11-11 21:44:00,42.3,37.8,30.19,ESE,113,3.1,3.1,84,0.00,,,0.00,meteobridge,2013-11-12 02:44:00,
2013-11-11 21:49:00,42.3,37.4,30.19,East,90,3.1,3.8,83,0.00,,,0.00,meteobridge,2013-11-12 02:49:00,
2013-11-11 21:54:00,42.1,37.2,30.19,SE,135,3.1,3.1,83,0.00,,,0.00,meteobridge,2013-11-12 02:54:00,
2013-11-11 21:59:00,42.1,37.6,30.19,SE,135,3.8,4.5,84,0.00,,,0.00,meteobridge,2013-11-12 02:59:00,
2013-11-11 22:04:00,41.9,37.8,30.18,SE,135,3.8,3.8,85,0.00,,,0.00,meteobridge,2013-11-12 03:04:00,
2013-11-11 22:09:00,41.7,37.6,30.18,East,90,3.8,3.8,85,0.00,,,0.00,meteobridge,2013-11-12 03:09:00,
2013-11-11 22:15:00,41.7,37.6,30.18,ESE,113,3.1,3.1,85,0.00,,,0.00,meteobridge,2013-11-12 03:15:00,
2013-11-11 22:20:00,41.7,38.1,30.18,SE,135,3.8,3.8,87,0.00,,,0.00,meteobridge,2013-11-12 03:20:00,
2013-11-11 22:25:00,41.7,38.5,30.18,ESE,113,2.2,3.1,88,0.00,,,0.00,meteobridge,2013-11-12 03:25:00,
2013-11-11 22:30:00,41.7,39.0,30.18,SE,135,2.2,2.2,90,0.00,,,0.00,meteobridge,2013-11-12 03:30:00,
2013-11-11 22:35:00,41.5,38.8,30.18,SE,135,2.2,2.2,90,0.00,,,0.00,meteobridge,2013-11-12 03:35:00,
2013-11-11 22:40:00,41.4,38.7,30.17,East,90,3.1,3.1,90,0.00,,,0.00,meteobridge,2013-11-12 03:40:00,
2013-11-11 22:46:00,41.4,38.7,30.17,East,90,3.8,3.8,90,0.00,,,0.00,meteobridge,2013-11-12 03:46:00,
2013-11-11 22:51:00,41.2,38.5,30.17,East,90,3.1,3.1,90,0.00,,,0.00,meteobridge,2013-11-12 03:51:00,
2013-11-11 22:56:00,41.2,38.5,30.17,SE,135,3.1,3.8,90,0.00,,,0.00,meteobridge,2013-11-12 03:56:00,
2013-11-11 23:01:00,41.0,37.9,30.17,SE,135,3.1,3.1,89,0.00,,,0.00,meteobridge,2013-11-12 04:01:00,
2013-11-11 23:06:00,41.0,37.9,30.17,SE,135,3.1,3.1,89,0.00,,,0.00,meteobridge,2013-11-12 04:06:00,
2013-11-11 23:11:00,41.0,37.9,30.17,SE,135,3.8,3.8,89,0.00,,,0.00,meteobridge,2013-11-12 04:11:00,
2013-11-11 23:17:00,40.8,38.1,30.17,SE,135,3.1,3.8,90,0.00,,,0.00,meteobridge,2013-11-12 04:17:00,
2013-11-11 23:22:00,40.8,38.1,30.16,SE,135,4.5,4.5,90,0.00,,,0.00,meteobridge,2013-11-12 04:22:00,
2013-11-11 23:27:00,40.6,37.9,30.16,East,90,3.1,3.1,90,0.00,,,0.00,meteobridge,2013-11-12 04:27:00,
2013-11-11 23:32:00,40.6,37.9,30.16,SE,135,2.2,2.2,90,0.00,,,0.00,meteobridge,2013-11-12 04:32:00,
2013-11-11 23:37:00,40.6,37.9,30.16,SE,135,3.1,3.8,90,0.00,,,0.00,meteobridge,2013-11-12 04:37:00,
2013-11-11 23:42:00,40.5,37.8,30.15,SE,135,3.1,3.1,90,0.00,,,0.00,meteobridge,2013-11-12 04:42:00,
2013-11-11 23:48:00,40.6,38.3,30.16,East,90,2.2,3.1,91,0.00,,,0.00,meteobridge,2013-11-12 04:48:00,
2013-11-11 23:53:00,40.6,38.5,30.15,SE,135,3.1,3.1,92,0.00,,,0.00,meteobridge,2013-11-12 04:53:00,
2013-11-11 23:58:00,40.5,38.7,30.16,SE,135,3.8,3.8,93,0.00,,,0.00,meteobridge,2013-11-12 04:58:00,